LFMH/EBU METAR and TAF weather

Enter ICAO airport designator
Station Type Date Time Source
LFMH METAR 2020/09/24 11:00 UTC NOAA

LFMH 241100Z AUTO 19007KT 9999 NSC 19/14 Q1009 TEMPO SHRA BKN040TCU


Station Type Date Time Source
LFMH Decoded METAR 2020/09/24 11:00 UTC NOAA

St-Etienne Boutheon, France (LFMH) 45-32N 004-18E 402M
Sep 24, 2020 - 07:00 AM EDT / 2020.09.24 1100 UTC
Wind: from the S (190 degrees) at 8 MPH (7 KT):0
Visibility: greater than 7 mile(s):0
Weather: Towering cumulus clouds observed
Temperature: 66 F (19 C)
Dew Point: 57 F (14 C)
Relative Humidity: 72%
Pressure (altimeter): 29.80 in. Hg (1009 hPa)
ob: LFMH 241100Z AUTO 19007KT 9999 NSC 19/14 Q1009 TEMPO SHRA BKN040TCU
cycle: 11

Station Type Date Time Source
LFMH TAF 2020/09/24 09:45 UTC NOAA

TAF LFMH 240800Z 2409/2509 20010KT 9999 SCT050 BKN060
TEMPO 2409/2424 5000 SHRA BKN040TCU

Example: see airport list